sensor_id;sensor_type;location;lat;lon;timestamp;pressure;altitude;pressure_sealevel;temperature;humidity
10366;BME280;5229;41.820;23.490;2023-03-14T00:01:57;90082.31;;;3.50;48.13
10366;BME280;5229;41.820;23.490;2023-03-14T00:04:24;90080.78;;;3.49;48.44
10366;BME280;5229;41.820;23.490;2023-03-14T00:06:50;90073.09;;;3.44;48.84
10366;BME280;5229;41.820;23.490;2023-03-14T00:09:17;90058.50;;;3.45;48.34
10366;BME280;5229;41.820;23.490;2023-03-14T00:11:44;90061.06;;;3.45;48.66
10366;BME280;5229;41.820;23.490;2023-03-14T00:14:13;90047.47;;;3.44;48.37
10366;BME280;5229;41.820;23.490;2023-03-14T00:16:40;90050.28;;;3.43;48.83
10366;BME280;5229;41.820;23.490;2023-03-14T00:19:07;90046.22;;;3.37;48.42
10366;BME280;5229;41.820;23.490;2023-03-14T00:21:34;90034.97;;;3.33;49.06
10366;BME280;5229;41.820;23.490;2023-03-14T00:24:01;90045.22;;;3.33;48.95
10366;BME280;5229;41.820;23.490;2023-03-14T00:26:28;90044.44;;;3.32;49.24
10366;BME280;5229;41.820;23.490;2023-03-14T00:28:55;90048.03;;;3.31;49.24
10366;BME280;5229;41.820;23.490;2023-03-14T00:31:23;90041.59;;;3.29;49.13
10366;BME280;5229;41.820;23.490;2023-03-14T00:33:51;90042.13;;;3.31;49.33
10366;BME280;5229;41.820;23.490;2023-03-14T00:36:20;90040.59;;;3.35;48.47
10366;BME280;5229;41.820;23.490;2023-03-14T00:38:48;90039.81;;;3.39;48.54
10366;BME280;5229;41.820;23.490;2023-03-14T00:41:17;90031.09;;;3.40;49.18
10366;BME280;5229;41.820;23.490;2023-03-14T00:43:44;90025.72;;;3.42;48.84
10366;BME280;5229;41.820;23.490;2023-03-14T00:46:11;90026.47;;;3.42;48.38
10366;BME280;5229;41.820;23.490;2023-03-14T00:48:39;90024.66;;;3.43;48.46
10366;BME280;5229;41.820;23.490;2023-03-14T00:51:07;90013.66;;;3.37;48.48
10366;BME280;5229;41.820;23.490;2023-03-14T00:53:35;90018.56;;;3.29;48.88
10366;BME280;5229;41.820;23.490;2023-03-14T00:56:04;90008.59;;;3.22;48.81
10366;BME280;5229;41.820;23.490;2023-03-14T00:58:31;90008.59;;;3.22;49.33
10366;BME280;5229;41.820;23.490;2023-03-14T01:00:58;90006.03;;;3.22;49.49
10366;BME280;5229;41.820;23.490;2023-03-14T01:03:25;89993.72;;;3.19;49.32
10366;BME280;5229;41.820;23.490;2023-03-14T01:05:53;89993.72;;;3.19;49.27
10366;BME280;5229;41.820;23.490;2023-03-14T01:08:20;89994.25;;;3.16;48.91
10366;BME280;5229;41.820;23.490;2023-03-14T01:10:46;89992.97;;;3.13;49.15
10366;BME280;5229;41.820;23.490;2023-03-14T01:13:13;89989.16;;;3.11;48.99
10366;BME280;5229;41.820;23.490;2023-03-14T01:15:40;89984.03;;;3.11;49.03
10366;BME280;5229;41.820;23.490;2023-03-14T01:18:07;89987.88;;;3.08;49.74
10366;BME280;5229;41.820;23.490;2023-03-14T01:20:33;89991.72;;;3.11;49.57
10366;BME280;5229;41.820;23.490;2023-03-14T01:23:01;89986.59;;;3.11;49.67
10366;BME280;5229;41.820;23.490;2023-03-14T01:25:28;89983.78;;;3.13;48.87
10366;BME280;5229;41.820;23.490;2023-03-14T01:27:55;89975.81;;;3.14;49.20
10366;BME280;5229;41.820;23.490;2023-03-14T01:30:22;89976.31;;;3.16;49.03
10366;BME280;5229;41.820;23.490;2023-03-14T01:32:49;89968.63;;;3.16;49.30
10366;BME280;5229;41.820;23.490;2023-03-14T01:35:16;89964.28;;;3.17;49.28
10366;BME280;5229;41.820;23.490;2023-03-14T01:37:42;89955.56;;;3.17;49.20
10366;BME280;5229;41.820;23.490;2023-03-14T01:40:12;89947.63;;;3.19;49.28
10366;BME280;5229;41.820;23.490;2023-03-14T01:42:45;89946.09;;;3.18;49.40
10366;BME280;5229;41.820;23.490;2023-03-14T01:48:12;89934.34;;;3.17;48.88
10366;BME280;5229;41.820;23.490;2023-03-14T01:50:39;89940.47;;;3.16;49.01
10366;BME280;5229;41.820;23.490;2023-03-14T01:53:06;89945.09;;;3.14;49.32
10366;BME280;5229;41.820;23.490;2023-03-14T01:55:34;89944.84;;;3.10;49.77
10366;BME280;5229;41.820;23.490;2023-03-14T01:58:03;89936.66;;;3.08;49.49
10366;BME280;5229;41.820;23.490;2023-03-14T02:00:31;89940.78;;;3.04;49.20
10366;BME280;5229;41.820;23.490;2023-03-14T02:03:01;89948.19;;;3.01;49.75
10366;BME280;5229;41.820;23.490;2023-03-14T02:05:30;89952.81;;;2.99;50.00
10366;BME280;5229;41.820;23.490;2023-03-14T02:08:00;89944.63;;;2.97;49.71
10366;BME280;5229;41.820;23.490;2023-03-14T02:10:29;89945.66;;;2.96;49.31
10366;BME280;5229;41.820;23.490;2023-03-14T02:13:01;89948.22;;;2.96;49.97
10366;BME280;5229;41.820;23.490;2023-03-14T02:15:29;89937.47;;;2.94;49.71
10366;BME280;5229;41.820;23.490;2023-03-14T02:17:56;89940.78;;;2.94;49.42
10366;BME280;5229;41.820;23.490;2023-03-14T02:20:30;89936.19;;;2.91;49.58
10366;BME280;5229;41.820;23.490;2023-03-14T02:23:00;89937.47;;;2.89;49.34
10366;BME280;5229;41.820;23.490;2023-03-14T02:25:35;89943.59;;;2.88;49.95
10366;BME280;5229;41.820;23.490;2023-03-14T02:28:07;89951.03;;;2.89;49.46
10366;BME280;5229;41.820;23.490;2023-03-14T02:30:34;89949.75;;;2.87;49.21
10366;BME280;5229;41.820;23.490;2023-03-14T02:33:04;89961.53;;;2.88;49.59
10366;BME280;5229;41.820;23.490;2023-03-14T02:35:37;89959.75;;;2.88;49.50
10366;BME280;5229;41.820;23.490;2023-03-14T02:38:10;89948.97;;;2.86;49.57
10366;BME280;5229;41.820;23.490;2023-03-14T02:40:41;89950.28;;;2.89;49.54
10366;BME280;5229;41.820;23.490;2023-03-14T02:43:10;89945.66;;;2.91;49.28
10366;BME280;5229;41.820;23.490;2023-03-14T02:45:40;89943.59;;;2.88;49.75
10366;BME280;5229;41.820;23.490;2023-03-14T02:48:11;89945.16;;;2.84;49.86
10366;BME280;5229;41.820;23.490;2023-03-14T02:50:40;89942.09;;;2.82;50.16
10366;BME280;5229;41.820;23.490;2023-03-14T02:53:07;89938.50;;;2.83;49.67
10366;BME280;5229;41.820;23.490;2023-03-14T02:55:34;89935.44;;;2.86;49.56
10366;BME280;5229;41.820;23.490;2023-03-14T02:58:01;89939.78;;;2.85;49.74
10366;BME280;5229;41.820;23.490;2023-03-14T03:00:29;89945.94;;;2.84;49.88
10366;BME280;5229;41.820;23.490;2023-03-14T03:02:57;89945.41;;;2.82;49.53
10366;BME280;5229;41.820;23.490;2023-03-14T03:05:23;89942.84;;;2.82;49.80
10366;BME280;5229;41.820;23.490;2023-03-14T03:07:50;89942.84;;;2.82;50.07
10366;BME280;5229;41.820;23.490;2023-03-14T03:10:17;89943.88;;;2.81;49.46
10366;BME280;5229;41.820;23.490;2023-03-14T03:12:44;89939.28;;;2.78;49.62
10366;BME280;5229;41.820;23.490;2023-03-14T03:15:11;89929.81;;;2.74;50.29
10366;BME280;5229;41.820;23.490;2023-03-14T03:17:39;89931.88;;;2.72;50.04
10366;BME280;5229;41.820;23.490;2023-03-14T03:20:07;89926.22;;;2.70;50.31
10366;BME280;5229;41.820;23.490;2023-03-14T03:22:34;89919.59;;;2.69;50.46
10366;BME280;5229;41.820;23.490;2023-03-14T03:25:01;89922.16;;;2.69;50.14
10366;BME280;5229;41.820;23.490;2023-03-14T03:27:29;89929.81;;;2.69;50.31
10366;BME280;5229;41.820;23.490;2023-03-14T03:29:56;89925.25;;;2.61;50.22
10366;BME280;5229;41.820;23.490;2023-03-14T03:32:23;89936.47;;;2.60;49.99
10366;BME280;5229;41.820;23.490;2023-03-14T03:34:51;89939.56;;;2.57;49.96
10366;BME280;5229;41.820;23.490;2023-03-14T03:37:18;89941.88;;;2.53;50.18
10366;BME280;5229;41.820;23.490;2023-03-14T03:39:45;89934.97;;;2.49;50.28
10366;BME280;5229;41.820;23.490;2023-03-14T03:42:12;89936.50;;;2.45;50.77
10366;BME280;5229;41.820;23.490;2023-03-14T03:44:38;89939.06;;;2.40;50.35
10366;BME280;5229;41.820;23.490;2023-03-14T03:47:05;89937.28;;;2.35;50.81
10366;BME280;5229;41.820;23.490;2023-03-14T03:49:32;89935.50;;;2.36;50.78
10366;BME280;5229;41.820;23.490;2023-03-14T03:52:00;89939.59;;;2.37;50.75
10366;BME280;5229;41.820;23.490;2023-03-14T03:54:27;89923.72;;;2.40;50.49
10366;BME280;5229;41.820;23.490;2023-03-14T03:56:55;89939.81;;;2.40;50.91
10366;BME280;5229;41.820;23.490;2023-03-14T03:59:22;89930.88;;;2.38;50.36
10366;BME280;5229;41.820;23.490;2023-03-14T04:01:48;89938.06;;;2.36;51.02
10366;BME280;5229;41.820;23.490;2023-03-14T04:04:15;89930.63;;;2.34;51.07
10366;BME280;5229;41.820;23.490;2023-03-14T04:06:42;89940.34;;;2.37;50.53
10366;BME280;5229;41.820;23.490;2023-03-14T04:09:11;89939.59;;;2.37;50.87
10366;BME280;5229;41.820;23.490;2023-03-14T04:11:38;89930.63;;;2.34;50.58
10366;BME280;5229;41.820;23.490;2023-03-14T04:14:05;89927.31;;;2.34;51.22
10366;BME280;5229;41.820;23.490;2023-03-14T04:16:32;89926.28;;;2.35;50.40
10366;BME280;5229;41.820;23.490;2023-03-14T04:18:59;89915.53;;;2.33;51.23
10366;BME280;5229;41.820;23.490;2023-03-14T04:21:26;89909.91;;;2.31;50.50
10366;BME280;5229;41.820;23.490;2023-03-14T04:23:53;89916.28;;;2.33;50.65
10366;BME280;5229;41.820;23.490;2023-03-14T04:26:21;89918.59;;;2.35;50.65
10366;BME280;5229;41.820;23.490;2023-03-14T04:28:48;89920.41;;;2.34;50.64
10366;BME280;5229;41.820;23.490;2023-03-14T04:31:17;89925.25;;;2.36;50.71
10366;BME280;5229;41.820;23.490;2023-03-14T04:33:44;89923.47;;;2.41;51.15
10366;BME280;5229;41.820;23.490;2023-03-14T04:36:11;89921.41;;;2.43;50.60
10366;BME280;5229;41.820;23.490;2023-03-14T04:38:38;89926.53;;;2.48;50.62
10366;BME280;5229;41.820;23.490;2023-03-14T04:41:05;89924.22;;;2.52;51.03
10366;BME280;5229;41.820;23.490;2023-03-14T04:44:10;89923.22;;;2.53;50.20
10366;BME280;5229;41.820;23.490;2023-03-14T04:46:37;89929.34;;;2.52;50.55
10366;BME280;5229;41.820;23.490;2023-03-14T04:49:04;89928.34;;;2.53;50.72
10366;BME280;5229;41.820;23.490;2023-03-14T04:51:31;89914.50;;;2.49;50.31
10366;BME280;5229;41.820;23.490;2023-03-14T04:53:58;89915.78;;;2.51;50.46
10366;BME280;5229;41.820;23.490;2023-03-14T04:56:24;89922.19;;;2.54;50.01
10366;BME280;5229;41.820;23.490;2023-03-14T04:58:52;89924.22;;;2.57;50.70
10366;BME280;5229;41.820;23.490;2023-03-14T05:01:21;89920.13;;;2.61;50.45
10366;BME280;5229;41.820;23.490;2023-03-14T05:03:48;89914.97;;;2.66;50.43
10366;BME280;5229;41.820;23.490;2023-03-14T05:06:15;89924.69;;;2.74;50.64
10366;BME280;5229;41.820;23.490;2023-03-14T05:08:42;89923.66;;;2.80;50.33
10366;BME280;5229;41.820;23.490;2023-03-14T05:11:10;89930.56;;;2.84;49.98
10366;BME280;5229;41.820;23.490;2023-03-14T05:13:37;89926.22;;;2.90;50.44
10366;BME280;5229;41.820;23.490;2023-03-14T05:16:05;89929.78;;;2.94;49.91
10366;BME280;5229;41.820;23.490;2023-03-14T05:18:33;89926.94;;;3.00;50.35
10366;BME280;5229;41.820;23.490;2023-03-14T05:21:00;89921.03;;;3.10;50.67
10366;BME280;5229;41.820;23.490;2023-03-14T05:23:29;89906.38;;;3.21;50.30
10366;BME280;5229;41.820;23.490;2023-03-14T05:25:55;89916.56;;;3.36;50.36
10366;BME280;5229;41.820;23.490;2023-03-14T05:28:22;89909.63;;;3.46;50.13
10366;BME280;5229;41.820;23.490;2023-03-14T05:30:49;89914.69;;;3.56;49.91
10366;BME280;5229;41.820;23.490;2023-03-14T05:33:16;89919.22;;;3.74;49.29
10366;BME280;5229;41.820;23.490;2023-03-14T05:35:44;89929.31;;;3.99;50.04
10366;BME280;5229;41.820;23.490;2023-03-14T05:38:11;89924.50;;;4.31;49.92
10366;BME280;5229;41.820;23.490;2023-03-14T05:40:37;89935.19;;;4.72;49.11
10366;BME280;5229;41.820;23.490;2023-03-14T05:43:04;89936.03;;;5.19;48.43
10366;BME280;5229;41.820;23.490;2023-03-14T05:45:33;89929.31;;;5.89;47.89
10366;BME280;5229;41.820;23.490;2023-03-14T05:48:00;89927.41;;;6.69;46.86
10366;BME280;5229;41.820;23.490;2023-03-14T05:50:26;89917.22;;;7.50;45.27
10366;BME280;5229;41.820;23.490;2023-03-14T05:52:54;89917.38;;;7.94;43.60
10366;BME280;5229;41.820;23.490;2023-03-14T05:55:21;89919.66;;;8.22;43.60
10366;BME280;5229;41.820;23.490;2023-03-14T05:57:48;89918.81;;;8.49;43.02
10366;BME280;5229;41.820;23.490;2023-03-14T06:00:16;89924.03;;;8.79;42.90
10366;BME280;5229;41.820;23.490;2023-03-14T06:02:43;89923.66;;;9.17;41.90
10366;BME280;5229;41.820;23.490;2023-03-14T06:05:09;89924.50;;;9.73;41.63
10366;BME280;5229;41.820;23.490;2023-03-14T06:07:36;89925.00;;;10.23;40.31
10366;BME280;5229;41.820;23.490;2023-03-14T06:10:06;89928.06;;;10.50;40.26
10366;BME280;5229;41.820;23.490;2023-03-14T06:12:32;89933.25;;;10.84;39.34
10366;BME280;5229;41.820;23.490;2023-03-14T06:14:59;89923.91;;;11.17;38.82
10366;BME280;5229;41.820;23.490;2023-03-14T06:17:26;89927.03;;;11.48;38.50
10366;BME280;5229;41.820;23.490;2023-03-14T06:19:53;89927.19;;;11.98;37.40
10366;BME280;5229;41.820;23.490;2023-03-14T06:22:19;89926.66;;;12.42;36.84
10366;BME280;5229;41.820;23.490;2023-03-14T06:24:46;89928.81;;;12.81;36.24
10366;BME280;5229;41.820;23.490;2023-03-14T06:27:14;89934.13;;;13.58;35.15
10366;BME280;5229;41.820;23.490;2023-03-14T06:29:41;89934.75;;;15.00;33.70
10366;BME280;5229;41.820;23.490;2023-03-14T06:32:08;89929.00;;;16.85;31.41
10366;BME280;5229;41.820;23.490;2023-03-14T06:34:35;89927.31;;;17.88;30.06
10366;BME280;5229;41.820;23.490;2023-03-14T06:37:03;89924.25;;;19.02;28.52
10366;BME280;5229;41.820;23.490;2023-03-14T06:39:31;89916.47;;;20.05;27.50
10366;BME280;5229;41.820;23.490;2023-03-14T06:41:57;89916.66;;;21.27;26.05
10366;BME280;5229;41.820;23.490;2023-03-14T06:44:26;89908.78;;;22.48;24.82
10366;BME280;5229;41.820;23.490;2023-03-14T06:46:52;89920.06;;;23.43;24.00
10366;BME280;5229;41.820;23.490;2023-03-14T06:49:19;89914.56;;;24.03;23.08
10366;BME280;5229;41.820;23.490;2023-03-14T06:51:46;89917.63;;;24.66;22.51
10366;BME280;5229;41.820;23.490;2023-03-14T06:54:13;89925.94;;;25.16;22.13
10366;BME280;5229;41.820;23.490;2023-03-14T06:56:39;89921.75;;;25.59;21.61
10366;BME280;5229;41.820;23.490;2023-03-14T06:59:06;89931.69;;;26.22;20.77
10366;BME280;5229;41.820;23.490;2023-03-14T07:01:34;89927.00;;;26.63;20.54
10366;BME280;5229;41.820;23.490;2023-03-14T07:04:01;89935.84;;;26.83;20.03
10366;BME280;5229;41.820;23.490;2023-03-14T07:06:28;89928.78;;;27.19;20.04
10366;BME280;5229;41.820;23.490;2023-03-14T07:08:55;89932.22;;;27.43;19.48
10366;BME280;5229;41.820;23.490;2023-03-14T07:11:23;89936.28;;;27.93;19.19
10366;BME280;5229;41.820;23.490;2023-03-14T07:13:49;89927.56;;;28.68;18.60
10366;BME280;5229;41.820;23.490;2023-03-14T07:16:16;89922.25;;;29.00;18.18
10366;BME280;5229;41.820;23.490;2023-03-14T07:18:44;89921.97;;;29.14;18.04
10366;BME280;5229;41.820;23.490;2023-03-14T07:21:11;89924.78;;;29.23;17.74
10366;BME280;5229;41.820;23.490;2023-03-14T07:23:38;89926.78;;;29.35;17.45
10366;BME280;5229;41.820;23.490;2023-03-14T07:26:06;89924.25;;;29.44;17.05
10366;BME280;5229;41.820;23.490;2023-03-14T07:28:33;89930.94;;;29.52;17.02
10366;BME280;5229;41.820;23.490;2023-03-14T07:31:00;89931.28;;;29.70;17.29
10366;BME280;5229;41.820;23.490;2023-03-14T07:33:27;89929.63;;;29.88;16.99
10366;BME280;5229;41.820;23.490;2023-03-14T07:35:55;89925.53;;;30.00;16.49
10366;BME280;5229;41.820;23.490;2023-03-14T07:38:22;89924.25;;;30.33;16.19
10366;BME280;5229;41.820;23.490;2023-03-14T07:40:48;89925.31;;;30.89;15.40
10366;BME280;5229;41.820;23.490;2023-03-14T07:43:15;89923.31;;;31.31;15.32
10366;BME280;5229;41.820;23.490;2023-03-14T07:45:45;89921.88;;;31.51;14.90
10366;BME280;5229;41.820;23.490;2023-03-14T07:48:12;89919.41;;;31.44;14.92
10366;BME280;5229;41.820;23.490;2023-03-14T07:50:39;89910.81;;;31.49;15.37
10366;BME280;5229;41.820;23.490;2023-03-14T07:53:07;89908.97;;;31.46;15.01
10366;BME280;5229;41.820;23.490;2023-03-14T07:55:33;89910.41;;;31.38;14.93
10366;BME280;5229;41.820;23.490;2023-03-14T07:58:00;89903.88;;;31.27;14.72
10366;BME280;5229;41.820;23.490;2023-03-14T08:00:27;89903.94;;;31.48;14.22
10366;BME280;5229;41.820;23.490;2023-03-14T08:02:54;89906.72;;;31.57;14.28
10366;BME280;5229;41.820;23.490;2023-03-14T08:05:21;89907.00;;;31.72;13.95
10366;BME280;5229;41.820;23.490;2023-03-14T08:07:48;89900.97;;;31.80;13.85
10366;BME280;5229;41.820;23.490;2023-03-14T08:10:16;89904.53;;;31.65;13.79
10366;BME280;5229;41.820;23.490;2023-03-14T08:12:47;89909.56;;;31.75;13.91
10366;BME280;5229;41.820;23.490;2023-03-14T08:15:14;89902.47;;;31.81;14.15
10366;BME280;5229;41.820;23.490;2023-03-14T08:17:41;89903.88;;;31.73;13.96
10366;BME280;5229;41.820;23.490;2023-03-14T08:20:09;89898.63;;;30.98;13.93
10366;BME280;5229;41.820;23.490;2023-03-14T08:22:37;89898.53;;;29.94;15.07
10366;BME280;5229;41.820;23.490;2023-03-14T08:25:05;89895.56;;;29.32;15.62
10366;BME280;5229;41.820;23.490;2023-03-14T08:27:33;89897.56;;;29.28;15.55
10366;BME280;5229;41.820;23.490;2023-03-14T08:30:01;89890.94;;;29.32;15.06
10366;BME280;5229;41.820;23.490;2023-03-14T08:32:28;89883.41;;;28.79;15.29
10366;BME280;5229;41.820;23.490;2023-03-14T08:34:55;89875.88;;;28.23;16.09
10366;BME280;5229;41.820;23.490;2023-03-14T08:37:22;89876.78;;;27.77;16.29
10366;BME280;5229;41.820;23.490;2023-03-14T08:39:50;89872.53;;;27.60;16.38
10366;BME280;5229;41.820;23.490;2023-03-14T08:42:17;89873.19;;;27.21;16.88
10366;BME280;5229;41.820;23.490;2023-03-14T08:44:45;89868.09;;;26.61;16.74
10366;BME280;5229;41.820;23.490;2023-03-14T08:47:12;89864.34;;;26.02;17.52
10366;BME280;5229;41.820;23.490;2023-03-14T08:49:39;89854.88;;;25.68;17.82
10366;BME280;5229;41.820;23.490;2023-03-14T08:52:06;89855.34;;;25.59;17.97
10366;BME280;5229;41.820;23.490;2023-03-14T08:54:33;89855.38;;;25.89;17.84
10366;BME280;5229;41.820;23.490;2023-03-14T08:57:00;89849.31;;;26.45;17.05
10366;BME280;5229;41.820;23.490;2023-03-14T08:59:26;89849.13;;;27.05;16.49
10366;BME280;5229;41.820;23.490;2023-03-14T09:01:55;89848.78;;;27.26;16.51
10366;BME280;5229;41.820;23.490;2023-03-14T09:04:21;89857.22;;;27.44;16.45
10366;BME280;5229;41.820;23.490;2023-03-14T09:06:48;89847.88;;;27.75;16.25
10366;BME280;5229;41.820;23.490;2023-03-14T09:09:15;89850.59;;;27.72;16.29
10366;BME280;5229;41.820;23.490;2023-03-14T09:11:42;89853.94;;;27.56;16.46
10366;BME280;5229;41.820;23.490;2023-03-14T09:14:09;89845.66;;;27.70;16.30
10366;BME280;5229;41.820;23.490;2023-03-14T09:16:36;89849.03;;;27.94;16.08
10366;BME280;5229;41.820;23.490;2023-03-14T09:19:04;89850.41;;;28.02;16.04
10366;BME280;5229;41.820;23.490;2023-03-14T09:21:31;89839.22;;;28.27;15.86
10366;BME280;5229;41.820;23.490;2023-03-14T09:23:57;89837.63;;;28.65;15.63
10366;BME280;5229;41.820;23.490;2023-03-14T09:26:24;89839.63;;;29.09;15.92
10366;BME280;5229;41.820;23.490;2023-03-14T09:28:51;89845.53;;;29.77;14.73
10366;BME280;5229;41.820;23.490;2023-03-14T09:31:18;89830.13;;;30.47;14.03
10366;BME280;5229;41.820;23.490;2023-03-14T09:33:45;89836.31;;;31.19;13.55
10366;BME280;5229;41.820;23.490;2023-03-14T09:36:13;89840.13;;;31.77;13.53
10366;BME280;5229;41.820;23.490;2023-03-14T09:38:40;89831.19;;;32.23;13.22
10366;BME280;5229;41.820;23.490;2023-03-14T09:41:13;89841.88;;;32.66;13.09
10366;BME280;5229;41.820;23.490;2023-03-14T09:43:42;89830.97;;;33.00;12.38
10366;BME280;5229;41.820;23.490;2023-03-14T09:46:11;89827.47;;;33.31;12.46
10366;BME280;5229;41.820;23.490;2023-03-14T09:48:39;89824.38;;;33.50;12.41
10366;BME280;5229;41.820;23.490;2023-03-14T09:51:14;89815.41;;;33.80;12.00
10366;BME280;5229;41.820;23.490;2023-03-14T09:53:43;89811.09;;;33.92;12.27
10366;BME280;5229;41.820;23.490;2023-03-14T09:56:13;89811.41;;;33.85;12.59
10366;BME280;5229;41.820;23.490;2023-03-14T09:58:44;89808.09;;;33.99;11.89
10366;BME280;5229;41.820;23.490;2023-03-14T10:01:15;89807.31;;;34.25;11.68
10366;BME280;5229;41.820;23.490;2023-03-14T10:03:45;89796.34;;;34.47;11.63
10366;BME280;5229;41.820;23.490;2023-03-14T10:06:14;89793.53;;;34.74;11.90
10366;BME280;5229;41.820;23.490;2023-03-14T10:08:42;89784.56;;;34.68;11.19
10366;BME280;5229;41.820;23.490;2023-03-14T10:11:14;89783.94;;;34.49;11.79
10366;BME280;5229;41.820;23.490;2023-03-14T10:13:50;89772.13;;;34.38;11.54
10366;BME280;5229;41.820;23.490;2023-03-14T10:16:17;89767.47;;;34.38;11.76
10366;BME280;5229;41.820;23.490;2023-03-14T10:18:45;89756.25;;;34.40;11.38
10366;BME280;5229;41.820;23.490;2023-03-14T10:21:24;89761.88;;;34.51;11.30
10366;BME280;5229;41.820;23.490;2023-03-14T10:23:52;89753.06;;;34.50;11.32
10366;BME280;5229;41.820;23.490;2023-03-14T10:26:24;89749.75;;;34.55;11.66
10366;BME280;5229;41.820;23.490;2023-03-14T10:28:54;89749.25;;;34.33;11.73
10366;BME280;5229;41.820;23.490;2023-03-14T10:31:27;89745.41;;;34.07;11.77
10366;BME280;5229;41.820;23.490;2023-03-14T10:33:59;89732.44;;;33.88;11.77
10366;BME280;5229;41.820;23.490;2023-03-14T10:36:28;89731.38;;;33.85;11.99
10366;BME280;5229;41.820;23.490;2023-03-14T10:38:58;89727.34;;;33.90;11.66
10366;BME280;5229;41.820;23.490;2023-03-14T10:41:32;89719.28;;;33.81;11.96
10366;BME280;5229;41.820;23.490;2023-03-14T10:44:01;89716.31;;;33.61;11.93
10366;BME280;5229;41.820;23.490;2023-03-14T10:46:30;89712.75;;;33.46;11.85
10366;BME280;5229;41.820;23.490;2023-03-14T10:49:04;89706.16;;;33.29;11.93
10366;BME280;5229;41.820;23.490;2023-03-14T10:51:38;89703.44;;;33.01;12.13
10366;BME280;5229;41.820;23.490;2023-03-14T10:54:12;89691.03;;;32.86;12.20
10366;BME280;5229;41.820;23.490;2023-03-14T10:56:39;89685.78;;;32.82;12.24
10366;BME280;5229;41.820;23.490;2023-03-14T10:59:10;89682.75;;;32.62;11.97
10366;BME280;5229;41.820;23.490;2023-03-14T11:01:41;89676.19;;;32.15;12.24
10366;BME280;5229;41.820;23.490;2023-03-14T11:04:20;89671.50;;;31.02;12.71
10366;BME280;5229;41.820;23.490;2023-03-14T11:06:56;89658.75;;;29.63;12.95
10366;BME280;5229;41.820;23.490;2023-03-14T11:09:31;89647.72;;;28.34;13.95
10366;BME280;5229;41.820;23.490;2023-03-14T11:12:03;89649.22;;;27.16;14.25
10366;BME280;5229;41.820;23.490;2023-03-14T11:14:40;89644.44;;;26.03;14.93
10366;BME280;5229;41.820;23.490;2023-03-14T11:17:15;89636.97;;;25.18;15.42
10366;BME280;5229;41.820;23.490;2023-03-14T11:20:00;89612.97;;;24.31;16.52
10366;BME280;5229;41.820;23.490;2023-03-14T11:22:37;89611.66;;;23.69;16.93
10366;BME280;5229;41.820;23.490;2023-03-14T11:25:13;89608.59;;;23.26;17.67
10366;BME280;5229;41.820;23.490;2023-03-14T11:27:48;89604.25;;;22.92;18.08
10366;BME280;5229;41.820;23.490;2023-03-14T11:30:26;89594.97;;;22.62;18.55
10366;BME280;5229;41.820;23.490;2023-03-14T11:33:04;89592.03;;;22.36;18.58
10366;BME280;5229;41.820;23.490;2023-03-14T11:35:39;89589.50;;;21.97;19.10
10366;BME280;5229;41.820;23.490;2023-03-14T11:38:16;89570.72;;;21.53;18.81
10366;BME280;5229;41.820;23.490;2023-03-14T11:40:47;89565.47;;;21.32;19.37
10366;BME280;5229;41.820;23.490;2023-03-14T11:43:18;89567.72;;;21.16;19.58
10366;BME280;5229;41.820;23.490;2023-03-14T11:45:48;89555.66;;;20.98;20.21
10366;BME280;5229;41.820;23.490;2023-03-14T11:48:22;89560.88;;;20.80;19.84
10366;BME280;5229;41.820;23.490;2023-03-14T11:50:55;89541.25;;;20.60;20.13
10366;BME280;5229;41.820;23.490;2023-03-14T11:53:35;89532.97;;;20.44;20.43
10366;BME280;5229;41.820;23.490;2023-03-14T11:56:03;89526.91;;;20.26;20.18
10366;BME280;5229;41.820;23.490;2023-03-14T11:58:34;89530.94;;;20.06;20.41
10366;BME280;5229;41.820;23.490;2023-03-14T12:01:08;89519.22;;;19.86;20.59
10366;BME280;5229;41.820;23.490;2023-03-14T12:03:42;89510.88;;;19.70;20.92
10366;BME280;5229;41.820;23.490;2023-03-14T12:06:16;89513.06;;;19.54;21.35
10366;BME280;5229;41.820;23.490;2023-03-14T12:08:49;89514.50;;;19.44;21.87
10366;BME280;5229;41.820;23.490;2023-03-14T12:11:27;89512.94;;;19.33;22.13
10366;BME280;5229;41.820;23.490;2023-03-14T12:13:55;89489.22;;;19.26;22.38
10366;BME280;5229;41.820;23.490;2023-03-14T12:16:46;89492.53;;;19.16;22.61
10366;BME280;5229;41.820;23.490;2023-03-14T12:19:34;89492.16;;;19.14;22.82
10366;BME280;5229;41.820;23.490;2023-03-14T12:22:23;89493.25;;;19.09;22.84
10366;BME280;5229;41.820;23.490;2023-03-14T12:24:55;89485.34;;;19.06;22.90
10366;BME280;5229;41.820;23.490;2023-03-14T12:30:28;89478.03;;;18.78;23.24
10366;BME280;5229;41.820;23.490;2023-03-14T12:36:04;89463.25;;;18.60;23.54
10366;BME280;5229;41.820;23.490;2023-03-14T12:38:43;89460.88;;;18.44;23.22
10366;BME280;5229;41.820;23.490;2023-03-14T12:41:17;89452.59;;;18.42;23.37
10366;BME280;5229;41.820;23.490;2023-03-14T12:43:47;89444.34;;;18.40;23.43
10366;BME280;5229;41.820;23.490;2023-03-14T12:46:22;89435.69;;;18.36;23.42
10366;BME280;5229;41.820;23.490;2023-03-14T12:48:50;89442.38;;;18.34;23.62
10366;BME280;5229;41.820;23.490;2023-03-14T12:51:28;89441.22;;;18.28;24.22
10366;BME280;5229;41.820;23.490;2023-03-14T12:54:10;89438.59;;;18.28;24.26
10366;BME280;5229;41.820;23.490;2023-03-14T12:56:49;89435.25;;;18.31;24.00
10366;BME280;5229;41.820;23.490;2023-03-14T12:59:29;89428.09;;;18.28;24.01
10366;BME280;5229;41.820;23.490;2023-03-14T13:02:00;89430.31;;;18.26;24.27
10366;BME280;5229;41.820;23.490;2023-03-14T13:04:31;89431.75;;;18.20;24.71
10366;BME280;5229;41.820;23.490;2023-03-14T13:07:00;89426.84;;;18.15;24.75
10366;BME280;5229;41.820;23.490;2023-03-14T13:10:01;89414.03;;;18.06;24.86
10366;BME280;5229;41.820;23.490;2023-03-14T13:12:37;89426.00;;;18.04;24.55
10366;BME280;5229;41.820;23.490;2023-03-14T13:15:17;89418.00;;;17.93;24.34
10366;BME280;5229;41.820;23.490;2023-03-14T13:17:46;89417.66;;;17.95;24.41
10366;BME280;5229;41.820;23.490;2023-03-14T13:20:18;89412.03;;;17.93;24.29
10366;BME280;5229;41.820;23.490;2023-03-14T13:22:49;89414.25;;;17.91;24.53
10366;BME280;5229;41.820;23.490;2023-03-14T13:25:16;89406.00;;;17.89;24.02